Forside
METAR-TAF:

METAR-TAF

Lufthavne :

Presque_Isle_County_Airport

Rogers City, Michigan, USA

Breddekreds: 45-24-25N, længdekreds: 083-48-46W, højde: 204 m

Aktuelle vejr

Denne rapport blev lavet for 16 minutter siden, kl. 13:16 UTC
Vind 5 kt fra nord
Temperatur 2°C
Fugtighed 87%
Tryk 1020 hPa
Sigt: 16.1 km
Overskyet i en højde af 1300 ft

METAR: KPZQ 311316Z AUTO 35005KT 10SM OVC013 02/00 A3013 RMK AO2 T00170000

Tid: 09:32 (13:32 UTC)


TAF: fraværende

Vejrobservationer og prognoser fra mere end 4000 lufthavne (METAR og TAF).

De gule og røde prikker repræsenterer de meteorologiske stationer.

Flyt musen over at se navnet på stationen.

Så klik over at se vejr observationer og prognoser.

At skifte det kort: Klik på de grønne knapper med et sort kors for at zoome ind; på den grønne knap med en bindestreg for at zoome ud; eller på de grønne pile for tilstødende kort.


METAR-TAF: